Reutte, Austria
Current Conditions -  °F | °C
As of 5:20 AM on Sunday 26 Oct 2014 (Local Time) from ETHA Reporting Station
NA  
Wind Chill: 43°   Ceiling: NA
Heat Index: 43°   Visibility: NA
Dew Point: 43°   Wind: 2mph
Humidity: 100%   Direction: 260°W
Pressure: 30.27"   Gusts: NA
Location:  47.49°N, 10.72°E
Report Text: ETHA 260320Z AUTO 26002KT //// // ////// 06/06 Q1025 ///
Loading
Personal Weather Stations






























Interactive Weather Map
Tropical Storm Tracking
New forecast layout! Learn more

10-Day Weather Forecast

Advertisements
Track Severe Weather on mobile